Time;durP1;ratioP1;P1;durP2;ratioP2;P2;SDS_P1;SDS_P2;PMS_P1;PMS_P2;Temp;Humidity;BMP_temperature;BMP_pressure;BME280_temperature;BME280_humidity;BME280_pressure;Samples;Min_cycle;Max_cycle;Signal;HPM_P1;HPM_P2
2022/07/12 00:00:07;;;;;;;2.57;2.37;;;15.10;99.90;;;;;;5026552;28;20248;-58
2022/07/12 00:02:36;;;;;;;3.00;2.70;;;15.00;99.90;;;;;;5026484;28;20327;-58
2022/07/12 00:05:05;;;;;;;3.10;2.90;;;15.00;99.90;;;;;;5026601;28;20221;-58
2022/07/12 00:07:34;;;;;;;3.00;2.80;;;15.00;99.90;;;;;;5022917;28;20349;-58
2022/07/12 00:10:02;;;;;;;2.60;2.40;;;14.90;99.90;;;;;;5025959;28;20221;-58
2022/07/12 00:12:30;;;;;;;2.77;2.33;;;15.00;99.90;;;;;;5026598;28;20232;-58
2022/07/12 00:14:59;;;;;;;2.53;2.33;;;14.90;99.90;;;;;;5026154;28;20224;-57
2022/07/12 00:17:28;;;;;;;2.90;2.60;;;14.90;99.90;;;;;;5022919;28;20299;-58
2022/07/12 00:19:56;;;;;;;2.90;2.70;;;14.90;99.90;;;;;;5025514;28;20498;-58
2022/07/12 00:22:28;;;;;;;4.13;2.90;;;14.80;99.90;;;;;;5027059;28;20765;-57
2022/07/12 00:24:56;;;;;;;3.10;2.90;;;14.80;99.90;;;;;;5027135;28;20715;-58
2022/07/12 00:27:24;;;;;;;3.00;2.70;;;14.90;99.90;;;;;;5022619;28;21365;-58
2022/07/12 00:29:52;;;;;;;3.50;3.20;;;14.80;99.90;;;;;;5024636;28;20234;-57
2022/07/12 00:32:22;;;;;;;4.00;3.20;;;14.80;99.90;;;;;;5025307;28;20240;-58
2022/07/12 00:34:50;;;;;;;5.13;3.20;;;14.80;99.90;;;;;;5026573;28;20231;-57
2022/07/12 00:37:18;;;;;;;3.03;2.83;;;14.80;99.90;;;;;;5024882;28;20240;-58
2022/07/12 00:39:46;;;;;;;3.50;3.23;;;14.90;99.90;;;;;;5025248;28;20239;-57
2022/07/12 00:42:14;;;;;;;3.20;3.00;;;14.80;99.90;;;;;;5025357;28;20225;-57
2022/07/12 00:44:42;;;;;;;3.17;2.87;;;14.80;99.90;;;;;;5026040;28;20216;-58
2022/07/12 00:47:29;;;;;;;3.87;3.30;;;14.70;99.90;;;;;;5024276;28;20240;-57
2022/07/12 00:49:58;;;;;;;3.43;3.13;;;14.70;99.90;;;;;;5025796;28;20251;-58
2022/07/12 00:52:28;;;;;;;2.93;2.67;;;14.70;99.90;;;;;;5025986;28;20263;-57
2022/07/12 00:54:56;;;;;;;5.43;3.33;;;14.70;99.90;;;;;;5025753;28;20323;-58
2022/07/12 00:57:24;;;;;;;3.40;3.10;;;14.70;99.90;;;;;;5023338;28;20778;-58
2022/07/12 00:59:52;;;;;;;3.30;2.80;;;14.60;99.90;;;;;;5024506;28;20712;-56
2022/07/12 01:02:22;;;;;;;3.53;3.23;;;14.70;99.90;;;;;;5025929;28;20252;-57
2022/07/12 01:04:52;;;;;;;3.10;2.77;;;14.60;99.90;;;;;;5025441;28;20263;-58
2022/07/12 01:07:20;;;;;;;3.57;2.80;;;14.60;99.90;;;;;;5021947;28;20310;-57
2022/07/12 01:09:48;;;;;;;2.97;2.77;;;14.60;99.90;;;;;;5023805;28;20232;-57
2022/07/12 01:12:16;;;;;;;3.40;3.00;;;14.60;99.90;;;;;;5025675;28;20265;-58
2022/07/12 01:14:45;;;;;;;3.37;3.00;;;14.50;99.90;;;;;;5025124;28;20315;-58
2022/07/12 01:17:13;;;;;;;3.50;2.80;;;14.60;99.90;;;;;;5024684;28;20232;-58
2022/07/12 01:19:44;;;;;;;3.50;3.20;;;14.60;99.90;;;;;;5023217;28;20592;-58
2022/07/12 01:22:15;;;;;;;2.93;2.73;;;14.60;99.90;;;;;;5026532;28;20234;-58
2022/07/12 01:24:45;;;;;;;3.30;3.00;;;14.70;99.90;;;;;;5025039;28;20216;-58
2022/07/12 01:27:14;;;;;;;2.90;2.67;;;14.50;99.90;;;;;;5024065;28;20228;-58
2022/07/12 01:29:42;;;;;;;3.40;3.10;;;14.60;99.90;;;;;;5022937;28;20232;-57
2022/07/12 01:32:26;;;;;;;3.60;3.10;;;14.50;99.90;;;;;;5025607;28;20240;-58
2022/07/12 01:34:57;;;;;;;3.33;2.80;;;14.40;99.90;;;;;;5026997;28;20236;-58
2022/07/12 01:37:29;;;;;;;2.93;2.70;;;14.40;99.90;;;;;;5022082;28;20240;-57
2022/07/12 01:39:59;;;;;;;3.23;2.93;;;14.40;99.90;;;;;;5025692;28;20268;-58
2022/07/12 01:42:29;;;;;;;3.03;2.83;;;14.40;99.90;;;;;;5024403;28;20330;-58
2022/07/12 01:44:58;;;;;;;3.17;2.87;;;14.30;99.90;;;;;;5024834;28;20236;-58
2022/07/12 01:47:29;;;;;;;3.10;2.80;;;14.50;99.90;;;;;;5021830;28;21194;-58
2022/07/12 01:49:57;;;;;;;3.07;2.77;;;14.40;99.90;;;;;;5023573;28;21114;-57
2022/07/12 01:52:25;;;;;;;4.13;2.90;;;14.30;99.90;;;;;;5024638;28;20268;-58
2022/07/12 01:54:55;;;;;;;2.87;2.57;;;14.30;99.90;;;;;;5025923;28;20231;-58
2022/07/12 01:57:25;;;;;;;3.40;3.10;;;14.30;99.90;;;;;;5022679;28;20228;-57
2022/07/12 01:59:54;;;;;;;3.43;2.93;;;14.20;99.90;;;;;;5023004;28;20271;-57
2022/07/12 02:02:23;;;;;;;3.00;2.80;;;14.30;99.90;;;;;;5024477;28;20239;-57
2022/07/12 02:04:51;;;;;;;3.10;2.90;;;14.30;99.90;;;;;;5025426;28;20244;-57
2022/07/12 02:07:20;;;;;;;3.27;2.87;;;14.20;99.90;;;;;;5023208;28;20480;-58
2022/07/12 02:09:48;;;;;;;2.87;2.60;;;14.20;99.90;;;;;;5022704;28;20228;-57
2022/07/12 02:12:16;;;;;;;2.97;2.77;;;14.20;99.90;;;;;;5024754;28;20232;-58
2022/07/12 02:14:46;;;;;;;2.67;2.47;;;14.20;99.90;;;;;;5025131;28;20217;-58
2022/07/12 02:17:14;;;;;;;3.10;2.80;;;14.20;99.90;;;;;;5024095;28;20700;-58
2022/07/12 02:19:42;;;;;;;3.23;2.93;;;14.20;99.90;;;;;;5025892;28;20239;-58
2022/07/12 02:22:10;;;;;;;2.73;2.53;;;14.20;99.90;;;;;;5027066;28;20232;-57
2022/07/12 02:24:38;;;;;;;3.17;2.87;;;14.40;99.90;;;;;;5029398;28;20236;-57
2022/07/12 02:27:07;;;;;;;3.00;2.77;;;14.30;99.90;;;;;;5029364;28;20232;-56
2022/07/12 02:29:36;;;;;;;2.90;2.60;;;14.30;99.90;;;;;;5026670;28;20270;-58
2022/07/12 02:32:06;;;;;;;2.40;2.20;;;14.20;99.90;;;;;;5028906;28;20221;-58
2022/07/12 02:34:34;;;;;;;3.87;2.73;;;14.20;99.90;;;;;;5029176;28;20677;-58
2022/07/12 02:37:02;;;;;;;2.53;2.23;;;14.10;99.90;;;;;;5027745;28;20240;-57
2022/07/12 02:39:31;;;;;;;2.00;1.90;;;14.10;99.90;;;;;;5025172;28;20377;-57
2022/07/12 02:41:59;;;;;;;2.00;1.80;;;14.00;99.90;;;;;;5028154;28;20236;-58
2022/07/12 02:44:27;;;;;;;3.00;1.70;;;14.00;99.90;;;;;;5028746;28;20849;-58
2022/07/12 02:46:55;;;;;;;2.63;2.20;;;14.10;99.90;;;;;;5027805;28;20585;-57
2022/07/12 02:49:25;;;;;;;2.10;1.97;;;14.00;99.90;;;;;;5024185;28;20236;-57
2022/07/12 02:51:53;;;;;;;2.93;1.90;;;14.00;99.90;;;;;;5029063;28;20260;-57
2022/07/12 02:54:21;;;;;;;2.37;2.17;;;14.00;99.90;;;;;;5028923;28;20232;-57
2022/07/12 02:56:49;;;;;;;2.60;2.40;;;14.00;99.90;;;;;;5027055;28;20592;-58
2022/07/12 02:59:18;;;;;;;2.20;2.00;;;14.00;99.90;;;;;;5024200;28;20229;-58
2022/07/12 03:01:46;;;;;;;2.53;1.80;;;14.00;99.90;;;;;;5027568;28;20252;-58
2022/07/12 03:04:14;;;;;;;3.80;2.10;;;14.00;99.90;;;;;;5027554;28;20639;-58
2022/07/12 03:06:43;;;;;;;1.70;1.60;;;14.00;99.90;;;;;;5027552;28;20227;-58
2022/07/12 03:09:12;;;;;;;2.37;1.80;;;14.00;99.90;;;;;;5023754;28;20234;-57
2022/07/12 03:11:40;;;;;;;2.47;2.27;;;14.00;99.90;;;;;;5028070;28;20264;-58
2022/07/12 03:14:08;;;;;;;3.30;1.93;;;14.10;99.90;;;;;;5027519;28;20570;-57
2022/07/12 03:16:36;;;;;;;3.07;2.40;;;14.10;99.90;;;;;;5028616;28;20238;-58
2022/07/12 03:19:05;;;;;;;2.60;2.40;;;14.10;99.90;;;;;;5024190;28;20635;-57
2022/07/12 03:21:33;;;;;;;2.50;2.30;;;14.10;99.90;;;;;;5026931;28;20642;-57
2022/07/12 03:24:02;;;;;;;2.43;2.23;;;14.10;99.90;;;;;;5028660;28;20250;-58
2022/07/12 03:26:30;;;;;;;2.93;2.40;;;14.10;99.90;;;;;;5028471;28;20646;-58
2022/07/12 03:29:00;;;;;;;2.37;2.17;;;14.10;99.90;;;;;;5025522;28;20223;-57
2022/07/12 03:31:28;;;;;;;3.77;2.50;;;14.20;99.90;;;;;;5027855;28;20319;-58
2022/07/12 03:33:57;;;;;;;3.23;2.93;;;14.20;99.90;;;;;;5027189;28;20281;-57
2022/07/12 03:36:25;;;;;;;3.43;3.13;;;14.30;99.90;;;;;;5026706;28;20249;-58
2022/07/12 03:38:53;;;;;;;3.43;3.13;;;14.40;99.90;;;;;;5023284;28;20252;-57
2022/07/12 03:41:23;;;;;;;3.27;2.97;;;14.40;99.90;;;;;;5026894;28;20231;-58
2022/07/12 03:43:52;;;;;;;3.13;2.93;;;14.50;99.90;;;;;;5027112;28;20220;-57
2022/07/12 03:46:20;;;;;;;3.60;3.23;;;14.50;99.90;;;;;;5031970;28;20240;-57
2022/07/12 03:48:48;;;;;;;3.73;3.40;;;14.60;99.90;;;;;;5030177;28;20235;-58
2022/07/12 03:51:16;;;;;;;2.97;2.77;;;14.50;99.90;;;;;;5033576;28;20224;-58
2022/07/12 03:53:44;;;;;;;3.63;3.00;;;14.50;99.90;;;;;;5034714;28;20228;-58
2022/07/12 03:57:13;;;;;;;3.40;3.10;;;14.50;99.90;;;;;;5033738;28;20331;-58
2022/07/12 03:59:03;;;;;;;4.47;3.17;;;14.60;99.90;;;;;;5032467;28;20774;-58
2022/07/12 04:01:32;;;;;;;5.20;3.43;;;14.70;99.90;;;;;;5031446;28;20236;-57
2022/07/12 04:04:01;;;;;;;4.60;3.17;;;14.70;99.90;;;;;;5034115;28;21025;-58
2022/07/12 04:06:29;;;;;;;6.47;3.57;;;14.70;99.90;;;;;;5033583;28;20233;-56
2022/07/12 04:08:57;;;;;;;3.63;3.33;;;14.90;99.90;;;;;;5030547;28;20232;-58
2022/07/12 04:11:25;;;;;;;4.63;3.37;;;14.90;99.90;;;;;;5033761;28;20251;-58
2022/07/12 04:13:54;;;;;;;4.13;3.33;;;15.00;99.90;;;;;;5032984;28;20282;-58
2022/07/12 04:16:23;;;;;;;3.90;3.30;;;15.10;99.90;;;;;;5034244;28;20235;-58
2022/07/12 04:18:51;;;;;;;3.27;2.97;;;15.10;99.90;;;;;;5030455;28;20225;-58
2022/07/12 04:21:20;;;;;;;4.13;3.57;;;15.00;99.90;;;;;;5032409;28;20447;-58
2022/07/12 04:23:48;;;;;;;5.03;3.20;;;15.10;99.90;;;;;;5033607;28;20231;-58
2022/07/12 04:26:16;;;;;;;3.60;3.27;;;15.20;99.90;;;;;;5032219;28;20231;-58
2022/07/12 04:28:44;;;;;;;4.10;3.70;;;15.10;99.90;;;;;;5030586;28;20303;-58
2022/07/12 04:31:12;;;;;;;3.70;3.23;;;15.10;99.90;;;;;;5034449;28;20255;-58
2022/07/12 04:33:42;;;;;;;3.57;3.27;;;15.10;99.90;;;;;;5034017;28;20960;-58
2022/07/12 04:36:10;;;;;;;3.73;3.30;;;15.20;99.90;;;;;;5028002;28;20788;-58
2022/07/12 04:38:38;;;;;;;3.70;3.40;;;15.20;99.90;;;;;;5022390;28;20227;-58
2022/07/12 04:41:06;;;;;;;6.17;3.60;;;15.20;99.90;;;;;;5026215;28;20324;-58
2022/07/12 04:43:34;;;;;;;4.00;3.20;;;15.40;99.90;;;;;;5025966;28;20794;-58
2022/07/12 04:46:09;;;;;;;6.57;3.73;;;15.40;99.90;;;;;;5031415;28;20746;-58
2022/07/12 04:48:38;;;;;;;4.23;3.57;;;15.60;99.90;;;;;;5030652;28;20240;-58
2022/07/12 04:51:08;;;;;;;4.80;3.97;;;15.60;99.90;;;;;;5031033;28;20228;-58
2022/07/12 04:53:36;;;;;;;6.43;4.10;;;15.60;99.90;;;;;;5034793;28;20845;-58
2022/07/12 04:56:04;;;;;;;4.43;3.20;;;15.70;99.90;;;;;;5031525;28;20220;-59
2022/07/12 04:58:33;;;;;;;4.80;3.70;;;15.70;99.90;;;;;;5021384;28;20236;-59
2022/07/12 05:01:01;;;;;;;5.20;3.37;;;15.90;99.90;;;;;;5030817;28;20242;-58
2022/07/12 05:03:30;;;;;;;5.47;3.50;;;16.10;99.90;;;;;;5043826;28;20224;-58
2022/07/12 05:05:58;;;;;;;5.70;3.30;;;16.20;99.90;;;;;;5044949;28;20255;-58
2022/07/12 05:08:28;;;;;;;3.60;3.20;;;16.50;99.90;;;;;;5045818;28;20698;-59
2022/07/12 05:10:56;;;;;;;3.80;3.13;;;16.80;99.90;;;;;;5053027;28;20238;-59
2022/07/12 05:13:25;;;;;;;5.20;3.10;;;16.90;99.90;;;;;;5051892;28;20591;-58
2022/07/12 05:15:53;;;;;;;5.67;3.47;;;17.00;99.90;;;;;;5052545;28;20227;-58
2022/07/12 05:18:21;;;;;;;4.83;3.23;;;17.00;99.90;;;;;;5044958;28;20810;-59
2022/07/12 05:20:49;;;;;;;3.30;3.00;;;16.90;99.90;;;;;;5044509;28;20797;-59
2022/07/12 05:23:19;;;;;;;4.90;3.00;;;16.90;99.90;;;;;;5043800;28;20224;-59
2022/07/12 05:25:48;;;;;;;4.93;3.13;;;16.80;99.90;;;;;;5044981;28;20331;-58
2022/07/12 05:28:17;;;;;;;4.97;2.90;;;16.80;99.90;;;;;;5041393;28;20541;-58
2022/07/12 05:30:45;;;;;;;3.13;2.83;;;16.80;99.90;;;;;;5044079;28;20281;-59
2022/07/12 05:33:14;;;;;;;4.47;2.90;;;16.80;99.90;;;;;;5044165;28;20910;-58
2022/07/12 05:35:42;;;;;;;10.10;3.70;;;16.80;99.90;;;;;;5044692;28;20239;-59
2022/07/12 05:38:10;;;;;;;9.03;3.50;;;16.70;99.90;;;;;;5041204;28;20228;-58
2022/07/12 05:40:38;;;;;;;6.00;3.57;;;16.80;99.90;;;;;;5043885;28;20767;-58
2022/07/12 05:43:07;;;;;;;8.13;3.20;;;16.90;99.90;;;;;;5044933;28;20216;-58
2022/07/12 05:45:36;;;;;;;5.57;3.13;;;17.00;99.90;;;;;;5044205;28;20662;-58
2022/07/12 05:48:05;;;;;;;7.67;2.80;;;17.00;99.90;;;;;;5040384;28;20228;-58
2022/07/12 05:50:33;;;;;;;4.53;2.63;;;17.00;99.90;;;;;;5039349;28;20228;-58
2022/07/12 05:55:46;;;;;;;4.73;2.80;;;17.00;99.90;;;;;;5047430;28;20237;-59
2022/07/12 05:58:16;;;;;;;4.83;3.00;;;17.00;99.90;;;;;;5044636;28;20223;-58
2022/07/12 06:00:44;;;;;;;4.43;2.60;;;17.10;99.90;;;;;;5049545;28;20266;-59
2022/07/12 06:03:13;;;;;;;5.97;2.93;;;17.20;99.90;;;;;;5051220;28;20231;-58
2022/07/12 06:05:41;;;;;;;3.03;2.57;;;17.20;99.90;;;;;;5050850;28;20232;-58
2022/07/12 06:08:09;;;;;;;3.73;2.80;;;17.30;99.90;;;;;;5046660;28;20234;-58
2022/07/12 06:10:38;;;;;;;2.80;2.60;;;17.40;99.90;;;;;;5049673;28;20645;-58
2022/07/12 06:13:06;;;;;;;2.93;2.53;;;17.40;99.90;;;;;;5051234;28;20239;-58
2022/07/12 06:15:35;;;;;;;3.20;2.70;;;17.50;99.90;;;;;;5049832;28;20598;-58
2022/07/12 06:18:04;;;;;;;4.53;2.40;;;17.60;99.90;;;;;;5047872;28;20242;-58
2022/07/12 06:20:32;;;;;;;3.90;2.40;;;17.60;99.90;;;;;;5048493;28;20225;-58
2022/07/12 06:23:01;;;;;;;3.13;2.83;;;17.60;99.90;;;;;;5049133;28;20228;-59
2022/07/12 06:25:29;;;;;;;4.37;2.57;;;17.60;99.90;;;;;;5050357;28;20559;-59
2022/07/12 06:28:11;;;;;;;2.83;2.30;;;17.70;99.90;;;;;;5045788;28;20763;-58
2022/07/12 06:30:40;;;;;;;3.83;2.50;;;17.70;99.90;;;;;;5050191;28;20233;-59
2022/07/12 06:33:08;;;;;;;2.30;2.10;;;17.80;99.90;;;;;;5050232;28;20280;-59
2022/07/12 06:35:37;;;;;;;3.10;2.30;;;17.80;99.90;;;;;;5050079;28;20572;-59
2022/07/12 06:38:05;;;;;;;4.50;2.00;;;17.90;99.90;;;;;;5044901;28;20312;-59
2022/07/12 06:40:33;;;;;;;2.53;2.33;;;17.90;99.90;;;;;;5049004;28;20236;-59
2022/07/12 06:43:34;;;;;;;2.47;2.27;;;18.00;99.90;;;;;;5049028;28;20235;-59
2022/07/12 06:46:04;;;;;;;3.90;2.40;;;18.00;99.90;;;;;;5050817;28;20240;-59
2022/07/12 06:48:32;;;;;;;3.73;2.57;;;18.00;99.90;;;;;;5044955;28;20984;-59
2022/07/12 06:51:00;;;;;;;2.30;2.10;;;18.00;99.90;;;;;;5055789;28;20593;-58
2022/07/12 06:53:28;;;;;;;2.30;2.10;;;18.00;99.90;;;;;;5049829;28;20822;-59
2022/07/12 06:55:57;;;;;;;2.50;1.83;;;18.10;99.90;;;;;;5048911;28;20580;-59
2022/07/12 06:58:25;;;;;;;3.23;2.40;;;18.20;99.90;;;;;;5047495;28;20712;-58
2022/07/12 07:00:53;;;;;;;2.03;1.90;;;18.30;99.90;;;;;;5049564;28;20239;-59
2022/07/12 07:03:23;;;;;;;3.13;1.90;;;18.40;99.90;;;;;;5049278;28;20719;-59
2022/07/12 07:05:51;;;;;;;2.17;1.70;;;18.50;99.90;;;;;;5045215;28;20247;-59
2022/07/12 07:08:19;;;;;;;2.83;1.80;;;18.70;99.90;;;;;;5042305;28;20225;-60
2022/07/12 07:10:48;;;;;;;2.93;1.83;;;18.80;99.90;;;;;;5046234;28;20237;-59
2022/07/12 07:13:16;;;;;;;1.87;1.70;;;18.80;99.90;;;;;;5052794;28;20226;-58
2022/07/12 07:15:44;;;;;;;1.80;1.43;;;18.90;99.90;;;;;;5046641;28;20257;-59
2022/07/12 07:18:12;;;;;;;1.77;1.67;;;19.00;99.90;;;;;;5042455;28;20222;-60
2022/07/12 07:20:42;;;;;;;1.73;1.40;;;19.10;99.90;;;;;;5046583;28;20238;-59
2022/07/12 07:23:14;;;;;;;1.60;1.50;;;19.30;99.90;;;;;;5045814;28;20246;-59
2022/07/12 07:25:42;;;;;;;2.70;1.93;;;19.50;99.90;;;;;;5050474;28;20234;-59
2022/07/12 07:28:10;;;;;;;1.50;1.40;;;19.70;99.90;;;;;;5047715;28;20230;-59
2022/07/12 07:30:52;;;;;;;1.87;1.40;;;19.80;99.90;;;;;;5049846;28;20234;-59
2022/07/12 07:33:21;;;;;;;1.50;1.40;;;19.80;99.90;;;;;;5052315;28;20251;-60
2022/07/12 07:35:53;;;;;;;1.73;1.40;;;20.00;99.90;;;;;;5049870;28;20226;-59
2022/07/12 07:38:22;;;;;;;1.60;1.40;;;20.10;99.90;;;;;;5047080;28;20265;-59
2022/07/12 07:40:50;;;;;;;2.13;1.30;;;20.20;99.90;;;;;;5052219;28;20719;-59
2022/07/12 07:43:18;;;;;;;2.33;1.53;;;20.30;99.90;;;;;;5051721;28;20238;-59
2022/07/12 07:45:47;;;;;;;2.20;1.70;;;20.20;99.90;;;;;;5051335;28;20246;-59
2022/07/12 07:48:15;;;;;;;1.53;1.43;;;20.20;99.90;;;;;;5048394;28;20236;-59
2022/07/12 07:50:54;;;;;;;1.50;1.40;;;20.00;99.90;;;;;;5053868;28;20234;-59
2022/07/12 07:53:24;;;;;;;3.13;1.50;;;19.80;99.90;;;;;;5048429;28;20687;-59
2022/07/12 07:55:52;;;;;;;1.33;1.20;;;19.90;99.90;;;;;;5052040;28;20282;-59
2022/07/12 07:58:21;;;;;;;1.57;1.47;;;20.10;99.90;;;;;;5046997;28;20235;-60
2022/07/12 08:00:51;;;;;;;1.90;1.40;;;20.40;99.90;;;;;;5050844;28;20321;-59
2022/07/12 08:03:20;;;;;;;1.60;1.30;;;20.80;99.90;;;;;;5056089;28;20724;-59
2022/07/12 08:05:50;;;;;;;1.10;1.10;;;21.50;99.90;;;;;;5052884;28;20222;-59
2022/07/12 08:08:20;;;;;;;1.30;1.10;;;22.00;99.90;;;;;;5047783;28;20257;-60
2022/07/12 08:10:50;;;;;;;1.10;1.00;;;21.90;99.90;;;;;;5053653;28;20226;-59
2022/07/12 08:13:18;;;;;;;1.30;1.20;;;21.60;99.90;;;;;;5049160;28;20226;-59
2022/07/12 08:15:46;;;;;;;2.90;1.37;;;21.60;99.90;;;;;;5048879;28;20322;-59
2022/07/12 08:18:15;;;;;;;1.90;1.07;;;21.70;99.90;;;;;;5044558;28;20234;-59
2022/07/12 08:20:43;;;;;;;1.50;1.03;;;22.40;99.90;;;;;;5052652;28;20262;-59
2022/07/12 08:23:14;;;;;;;1.10;1.10;;;22.80;99.90;;;;;;5055158;28;20705;-59
2022/07/12 08:25:44;;;;;;;0.80;0.80;;;23.40;99.90;;;;;;5050028;28;20323;-60
2022/07/12 08:28:12;;;;;;;1.47;1.00;;;23.90;99.90;;;;;;5046251;28;20219;-60
2022/07/12 08:30:40;;;;;;;1.53;1.10;;;24.10;99.90;;;;;;5048356;28;20254;-60
2022/07/12 08:33:15;;;;;;;2.33;1.50;;;24.20;99.90;;;;;;5047171;28;20231;-60
2022/07/12 08:35:44;;;;;;;1.50;1.33;;;23.90;99.90;;;;;;5051239;28;20772;-60
2022/07/12 08:38:13;;;;;;;1.10;1.00;;;23.80;99.90;;;;;;5046396;28;20818;-60
2022/07/12 08:40:42;;;;;;;1.30;0.90;;;24.20;99.90;;;;;;5045308;28;20236;-60
2022/07/12 08:43:11;;;;;;;1.53;1.00;;;24.70;99.90;;;;;;5044539;28;20243;-60
2022/07/12 08:45:41;;;;;;;1.83;1.10;;;24.60;99.90;;;;;;5044170;28;20252;-60
2022/07/12 08:48:09;;;;;;;1.13;1.03;;;24.50;99.90;;;;;;5052336;28;20331;-60
2022/07/12 08:50:38;;;;;;;1.67;1.20;;;24.60;99.90;;;;;;5054258;28;20241;-60
2022/07/12 08:53:13;;;;;;;3.73;1.47;;;25.00;99.90;;;;;;5052120;28;20256;-60
2022/07/12 08:55:41;;;;;;;1.33;0.90;;;24.90;99.90;;;;;;5053275;28;20291;-59
2022/07/12 08:58:18;;;;;;;1.33;1.10;;;24.80;99.90;;;;;;5045381;28;20251;-60
2022/07/12 09:00:47;;;;;;;1.47;1.10;;;24.80;99.90;;;;;;5043418;28;20246;-60
2022/07/12 09:03:18;;;;;;;1.43;1.33;;;24.80;99.90;;;;;;5044080;28;20689;-60
2022/07/12 09:05:52;;;;;;;1.10;1.00;;;24.90;99.90;;;;;;5043545;28;20325;-60
2022/07/12 09:08:27;;;;;;;1.20;1.10;;;25.10;99.90;;;;;;5039618;28;20337;-60
2022/07/12 09:10:58;;;;;;;1.20;1.10;;;25.40;99.90;;;;;;5044819;28;20299;-60
2022/07/12 09:13:52;;;;;;;1.10;1.00;;;25.90;99.90;;;;;;5050075;28;20746;-60
2022/07/12 09:16:22;;;;;;;1.27;1.17;;;26.40;99.90;;;;;;5048987;28;20245;-60
2022/07/12 09:18:51;;;;;;;1.53;1.10;;;26.90;99.90;;;;;;5044897;28;20221;-60
2022/07/12 09:21:24;;;;;;;1.60;1.10;;;27.30;99.90;;;;;;5041923;28;20269;-60
2022/07/12 09:23:54;;;;;;;1.00;0.90;;;27.40;99.90;;;;;;5042765;28;20983;-60
2022/07/12 09:26:22;;;;;;;2.23;1.00;;;27.50;99.90;;;;;;5044456;28;20242;-60
2022/07/12 09:28:52;;;;;;;2.40;1.00;;;28.00;99.90;;;;;;5038786;28;20245;-61
2022/07/12 09:31:20;;;;;;;1.20;1.10;;;27.60;99.90;;;;;;5043761;28;20266;-61
2022/07/12 09:36:57;;;;;;;1.17;0.90;;;27.80;99.90;;;;;;5044359;28;20227;-60
2022/07/12 09:39:26;;;;;;;1.00;1.00;;;28.00;99.90;;;;;;5041895;28;20760;-60
2022/07/12 09:41:56;;;;;;;1.20;1.00;;;28.10;99.90;;;;;;5055437;28;20581;-60
2022/07/12 09:44:28;;;;;;;1.03;0.80;;;28.30;99.90;;;;;;5052513;28;20244;-60
2022/07/12 09:47:00;;;;;;;1.17;0.97;;;28.10;99.90;;;;;;5047595;28;20252;-60
2022/07/12 09:49:29;;;;;;;1.10;0.90;;;28.20;99.90;;;;;;5040654;28;20230;-59
2022/07/12 09:51:58;;;;;;;1.00;0.90;;;28.40;99.90;;;;;;5043899;28;20599;-59
2022/07/12 09:54:29;;;;;;;1.70;0.90;;;28.30;99.90;;;;;;5043392;28;20246;-60
2022/07/12 09:57:03;;;;;;;2.53;0.80;;;28.20;99.90;;;;;;5048398;28;20240;-60
2022/07/12 09:59:37;;;;;;;2.50;0.93;;;28.20;99.90;;;;;;5048257;28;20579;-59
2022/07/12 10:02:06;;;;;;;2.10;1.13;;;28.30;99.90;;;;;;5054021;28;20235;-59
2022/07/12 10:04:34;;;;;;;0.93;0.90;;;28.30;99.90;;;;;;5047306;28;20245;-60
2022/07/12 10:07:04;;;;;;;1.40;1.00;;;28.50;99.90;;;;;;5042893;28;20308;-61
2022/07/12 10:09:33;;;;;;;1.63;1.20;;;28.50;99.90;;;;;;5044082;28;20235;-61
2022/07/12 10:12:01;;;;;;;1.40;1.00;;;28.80;99.90;;;;;;5056297;28;20308;-62
2022/07/12 10:14:40;;;;;;;1.13;1.00;;;28.70;99.90;;;;;;5057360;28;20330;-60
2022/07/12 10:17:10;;;;;;;1.10;1.00;;;28.80;99.90;;;;;;5056173;28;20242;-60
2022/07/12 10:19:38;;;;;;;1.00;1.00;;;28.90;99.90;;;;;;5055040;28;20297;-64
2022/07/12 10:22:18;;;;;;;0.97;0.97;;;29.10;99.90;;;;;;5054685;28;20231;-60
2022/07/12 10:24:48;;;;;;;1.57;1.43;;;29.00;99.90;;;;;;5049520;28;20564;-63
2022/07/12 10:27:32;;;;;;;2.00;0.90;;;28.90;99.90;;;;;;5047269;28;20261;-62
2022/07/12 10:30:22;;;;;;;1.30;1.20;;;29.30;99.90;;;;;;5046416;28;20232;-60
2022/07/12 10:32:53;;;;;;;1.40;1.20;;;29.30;99.90;;;;;;5050109;28;20286;-64
2022/07/12 10:35:23;;;;;;;1.77;1.10;;;29.40;99.90;;;;;;5049439;28;20892;-61
2022/07/12 10:38:17;;;;;;;1.20;1.10;;;29.70;99.90;;;;;;5046130;28;20224;-59
2022/07/12 10:40:47;;;;;;;1.73;1.20;;;30.10;99.90;;;;;;5048339;28;20776;-60
2022/07/12 10:46:20;;;;;;;1.00;1.00;;;30.60;99.90;;;;;;5055069;28;20281;-61
2022/07/12 10:48:48;;;;;;;3.53;1.70;;;30.60;99.90;;;;;;5060135;28;20660;-61
2022/07/12 10:51:19;;;;;;;1.60;1.50;;;30.30;99.90;;;;;;5059867;28;20427;-59
2022/07/12 10:53:50;;;;;;;1.50;1.30;;;29.90;99.90;;;;;;5056489;28;20229;-59
2022/07/12 10:56:22;;;;;;;3.40;1.60;;;29.50;99.90;;;;;;5051757;28;20295;-60
2022/07/12 10:58:59;;;;;;;1.53;1.43;;;29.20;99.90;;;;;;5048159;28;20224;-65
2022/07/12 11:01:30;;;;;;;2.07;1.87;;;29.40;99.90;;;;;;5050633;28;20232;-61
2022/07/12 11:04:05;;;;;;;2.20;2.00;;;29.30;99.90;;;;;;5051252;28;20235;-59
2022/07/12 11:06:37;;;;;;;1.97;1.70;;;29.30;99.90;;;;;;5060588;28;20690;-60
2022/07/12 11:09:08;;;;;;;1.63;1.47;;;29.50;99.90;;;;;;5050279;28;20239;-60
2022/07/12 11:11:41;;;;;;;1.83;1.70;;;29.30;99.90;;;;;;5050237;28;20259;-60
2022/07/12 11:14:09;;;;;;;1.70;1.60;;;29.30;99.90;;;;;;5049135;28;20263;-60
2022/07/12 11:16:46;;;;;;;1.60;1.50;;;29.10;99.90;;;;;;5050327;28;20235;-64
2022/07/12 11:19:15;;;;;;;1.60;1.50;;;29.20;99.90;;;;;;5044769;28;20339;-61
2022/07/12 11:21:44;;;;;;;1.60;1.50;;;29.30;99.90;;;;;;5050283;28;20251;-61
2022/07/12 11:24:17;;;;;;;1.77;1.67;;;29.30;99.90;;;;;;5056332;28;20231;-61
2022/07/12 11:26:46;;;;;;;1.47;1.37;;;29.50;99.90;;;;;;5049822;28;20223;-59
2022/07/12 11:29:14;;;;;;;1.60;1.50;;;29.60;99.90;;;;;;5047076;28;20266;-59
2022/07/12 11:31:44;;;;;;;1.97;1.80;;;29.70;99.90;;;;;;5048719;28;20220;-59
2022/07/12 11:34:23;;;;;;;1.57;1.40;;;29.20;99.90;;;;;;5045888;28;20231;-60
2022/07/12 11:36:59;;;;;;;1.60;1.50;;;29.30;99.90;;;;;;5048262;28;20231;-59
2022/07/12 11:39:36;;;;;;;1.50;1.40;;;29.80;99.90;;;;;;5044801;28;20228;-60
2022/07/12 11:42:06;;;;;;;2.33;1.40;;;30.40;99.90;;;;;;5046750;28;20222;-59
2022/07/12 11:44:48;;;;;;;3.07;1.50;;;30.60;99.90;;;;;;5046885;28;20225;-60
2022/07/12 11:47:19;;;;;;;1.20;1.10;;;30.40;99.90;;;;;;5046718;28;20298;-61
2022/07/12 11:49:48;;;;;;;1.30;1.20;;;30.10;99.90;;;;;;5046939;28;20251;-61
2022/07/12 11:52:18;;;;;;;1.43;1.33;;;29.80;99.90;;;;;;5048475;28;20246;-60
2022/07/12 11:54:46;;;;;;;1.23;1.13;;;29.40;99.90;;;;;;5047932;28;20812;-60
2022/07/12 11:57:15;;;;;;;1.37;1.13;;;29.50;99.90;;;;;;5044265;28;20239;-60
2022/07/12 11:59:43;;;;;;;1.27;1.20;;;29.60;99.90;;;;;;5043453;28;20725;-60
2022/07/12 12:02:15;;;;;;;1.63;1.20;;;29.50;99.90;;;;;;5046000;28;20233;-60
2022/07/12 12:04:53;;;;;;;1.50;1.40;;;29.40;99.90;;;;;;5044670;28;20236;-60
2022/07/12 12:07:22;;;;;;;2.10;1.30;;;29.40;99.90;;;;;;5042482;28;21447;-60
2022/07/12 12:09:59;;;;;;;1.97;1.50;;;29.20;99.90;;;;;;5038962;28;20240;-60
2022/07/12 12:12:28;;;;;;;1.50;1.40;;;29.00;99.90;;;;;;5042688;28;20318;-60
2022/07/12 12:14:57;;;;;;;1.23;1.17;;;28.80;99.90;;;;;;5043463;28;20212;-60
2022/07/12 12:17:25;;;;;;;1.70;1.53;;;28.90;99.90;;;;;;5043524;28;20239;-60
2022/07/12 12:19:54;;;;;;;1.50;1.40;;;28.80;99.90;;;;;;5047931;28;21072;-59
2022/07/12 12:22:33;;;;;;;1.50;1.40;;;28.80;99.90;;;;;;5051962;28;20274;-60
2022/07/12 12:25:02;;;;;;;1.70;1.60;;;28.80;99.90;;;;;;5052187;28;20275;-60
2022/07/12 12:27:31;;;;;;;2.20;1.73;;;28.80;99.90;;;;;;5051607;28;20703;-60
2022/07/12 12:30:19;;;;;;;2.03;1.40;;;28.70;99.90;;;;;;5046821;28;20228;-60
2022/07/12 12:32:49;;;;;;;1.47;1.37;;;28.60;99.90;;;;;;5043365;28;20240;-60
2022/07/12 12:35:21;;;;;;;2.07;1.60;;;28.60;99.90;;;;;;5042607;28;20243;-60
2022/07/12 12:37:54;;;;;;;1.60;1.47;;;28.60;99.90;;;;;;5040139;28;20297;-60
2022/07/12 12:40:57;;;;;;;1.80;1.70;;;28.70;99.90;;;;;;5041993;28;20263;-60
2022/07/12 12:43:27;;;;;;;3.80;1.90;;;28.70;99.90;;;;;;5042481;28;20224;-60
2022/07/12 12:45:57;;;;;;;2.70;1.87;;;28.70;99.90;;;;;;5047648;28;20734;-60
2022/07/12 12:48:27;;;;;;;1.90;1.80;;;28.50;99.90;;;;;;5052044;28;20243;-60
2022/07/12 12:51:05;;;;;;;2.30;2.20;;;28.30;99.90;;;;;;5050126;28;20694;-59
2022/07/12 12:53:33;;;;;;;2.10;1.93;;;28.20;99.90;;;;;;5050511;28;20325;-60
2022/07/12 12:56:02;;;;;;;2.60;2.40;;;28.10;99.90;;;;;;5051858;28;20230;-60
2022/07/12 12:58:31;;;;;;;2.10;2.00;;;28.30;99.90;;;;;;5050296;28;20771;-60
2022/07/12 13:00:59;;;;;;;2.50;2.27;;;28.30;99.90;;;;;;5045667;28;20325;-60
2022/07/12 13:03:27;;;;;;;2.97;2.63;;;28.40;99.90;;;;;;5041561;28;20722;-60
2022/07/12 13:05:57;;;;;;;2.60;2.40;;;28.40;99.90;;;;;;5041907;28;20235;-60
2022/07/12 13:08:27;;;;;;;3.27;2.97;;;28.40;99.90;;;;;;5030818;28;20258;-60
2022/07/12 13:13:41;;;;;;;3.50;2.90;;;28.20;99.90;;;;;;5026872;28;20854;-59